Impacts METAR Board INFO
IDs:

KDFW - Dallas-Ft Worth Intl, TX, US

Updated at: 2127 UTC 23 Jan 2018
Potential Impact None Slight Moderate High
Time23/09Z 23/10Z 23/11Z 23/12Z 23/13Z 23/14Z 23/15Z 23/16Z 23/17Z 23/18Z 23/19Z 23/20Z 23/21Z
VIS10 10 10 10 10 10 10 10 10 10 10 10 10
CIG-- -- -- 250 250 250 250 -- -- -- -- -- --
CoverFEWSCTSCTBKNBKNBKNBKNSCTFEWFEWFEWFEWFEW
FltCatVFRVFRVFRVFRVFRVFRVFRVFRVFRVFRVFRVFRVFR
WX--------------------------
WDir3103203103203203103203303100290320310
WSpd10 9 9 10 7 8 11 8 6 5 5 5 5
WGst-- -- -- -- -- -- -- -- -- -- -- -- --
Raw hourly METARs
KDFW 230853Z 31010KT 10SM FEW250 06/M07 A3014 RMK AO2 SLP203 T00561067 51003 $
KDFW 230953Z 32009KT 10SM SCT250 05/M07 A3015 RMK AO2 SLP210 T00501072 $
KDFW 231053Z 31009KT 10SM SCT250 04/M07 A3017 RMK AO2 SLP215 T00441072 $
KDFW 231153Z 32010KT 10SM BKN250 04/M07 A3019 RMK AO2 SLP222 T00391072 10094 20039 53017 $
KDFW 231253Z 32007KT 10SM BKN250 02/M07 A3021 RMK AO2 SLP230 T00221067 $
KDFW 231353Z 31008KT 10SM BKN250 03/M07 A3024 RMK AO2 SLP240 T00331067 $
KDFW 231453Z 32011KT 10SM BKN250 06/M07 A3026 RMK AO2 SLP246 T00561072 52024 $
KDFW 231553Z 33008KT 10SM SCT250 07/M07 A3030 RMK AO2 SLP259 T00721067 $
KDFW 231653Z 31006KT 10SM FEW250 09/M07 A3031 RMK AO2 SLP264 T00891067 $
KDFW 231753Z VRB05KT 10SM FEW250 11/M07 A3030 RMK AO2 SLP259 T01111067 10117 20011 50013 $
KDFW 231853Z 29005KT 10SM FEW250 13/M08 A3027 RMK AO2 SLP250 T01331078 $
KDFW 231953Z 32005KT 10SM FEW250 14/M08 A3026 RMK AO2 SLP244 T01441083 $
KDFW 232053Z COR 31005KT 10SM FEW010 FEW250 16/M09 A3024 RMK AO2 SLP240 FU FEW010 DSNT N T01561089 56019 $